Time;durP1;ratioP1;P1;durP2;ratioP2;P2;SDS_P1;SDS_P2;PMS_P1;PMS_P2;Temp;Humidity;BMP_temperature;BMP_pressure;BME280_temperature;BME280_humidity;BME280_pressure;Samples;Min_cycle;Max_cycle;Signal;HPM_P1;HPM_P2
2023/03/31 00:02:12;;;;;;;39.20;19.60;;;8.20;99.90;;;;;;4459071;28;657635;-67
2023/03/31 00:04:59;;;;;;;36.17;19.23;;;8.20;99.90;;;;;;4438843;28;657122;-67
2023/03/31 00:07:48;;;;;;;39.77;19.60;;;8.20;99.90;;;;;;4438044;28;657704;-67
2023/03/31 00:10:37;;;;;;;39.23;19.93;;;8.20;99.90;;;;;;4447172;28;657881;-67
2023/03/31 00:13:24;;;;;;;37.47;18.47;;;8.20;99.90;;;;;;4447549;28;657905;-67
2023/03/31 00:16:11;;;;;;;38.63;18.00;;;8.10;99.90;;;;;;4426762;28;656979;-67
2023/03/31 00:19:00;;;;;;;35.70;17.37;;;8.20;99.90;;;;;;4448232;28;657628;-67
2023/03/31 00:21:49;;;;;;;34.70;19.53;;;8.10;99.90;;;;;;4428079;28;659029;-67
2023/03/31 00:24:37;;;;;;;37.60;16.33;;;8.10;99.90;;;;;;4429259;28;658521;-67
2023/03/31 00:27:27;;;;;;;31.33;16.23;;;8.10;99.90;;;;;;4443902;28;657959;-67
2023/03/31 00:30:14;;;;;;;35.00;18.97;;;8.10;99.90;;;;;;4432288;27;657684;-67
2023/03/31 00:33:02;;;;;;;42.40;21.10;;;8.10;99.90;;;;;;4436761;28;658250;-67
2023/03/31 00:35:51;;;;;;;38.30;20.80;;;8.00;99.90;;;;;;4454677;28;658238;-67
2023/03/31 00:38:39;;;;;;;35.37;20.20;;;8.00;99.90;;;;;;4430749;28;657771;-67
2023/03/31 00:41:26;;;;;;;33.87;16.77;;;8.00;99.90;;;;;;4427965;28;658299;-68
2023/03/31 00:44:17;;;;;;;37.72;19.10;;;7.90;99.90;;;;;;4456546;28;658659;-67
2023/03/31 00:47:06;;;;;;;42.27;21.93;;;7.90;99.90;;;;;;4427728;28;657299;-67
2023/03/31 00:49:55;;;;;;;38.67;21.67;;;8.00;99.90;;;;;;4428548;28;658307;-67
2023/03/31 00:52:43;;;;;;;41.67;22.67;;;8.00;99.90;;;;;;4444556;28;658100;-67
2023/03/31 00:55:33;;;;;;;43.30;22.77;;;8.00;99.90;;;;;;4443185;28;657736;-68
2023/03/31 00:58:20;;;;;;;41.30;23.37;;;8.00;99.90;;;;;;4430572;28;657530;-68
2023/03/31 01:01:09;;;;;;;46.97;26.70;;;7.90;99.90;;;;;;4460279;28;658815;-67
2023/03/31 01:03:58;;;;;;;43.83;24.40;;;7.90;99.90;;;;;;4437845;28;658811;-67
2023/03/31 01:06:59;;;;;;;40.90;22.63;;;7.90;99.90;;;;;;4448249;28;657686;-67
2023/03/31 01:09:47;;;;;;;40.63;24.90;;;7.90;99.90;;;;;;4399159;28;657637;-67
2023/03/31 01:12:34;;;;;;;39.77;24.53;;;7.90;99.90;;;;;;4451257;28;658010;-67
2023/03/31 01:15:22;;;;;;;39.27;25.63;;;7.90;99.90;;;;;;4427738;28;657520;-67
2023/03/31 01:18:10;;;;;;;43.27;25.50;;;7.90;99.90;;;;;;4449794;28;657812;-67
2023/03/31 01:21:24;;;;;;;39.10;23.33;;;7.90;99.90;;;;;;4423867;28;659278;-67
2023/03/31 01:24:46;;;;;;;39.10;23.37;;;7.90;99.90;;;;;;4421245;28;657653;-67
2023/03/31 01:27:54;;;;;;;44.57;24.57;;;7.90;99.90;;;;;;4438412;28;658361;-67
2023/03/31 01:31:44;;;;;;;42.43;23.90;;;7.90;99.90;;;;;;4414990;27;658167;-68
2023/03/31 01:35:00;;;;;;;43.33;22.13;;;7.90;99.90;;;;;;4392311;28;658222;-68
2023/03/31 01:38:15;;;;;;;42.33;23.43;;;7.90;99.90;;;;;;4404293;28;657732;-67
2023/03/31 01:41:21;;;;;;;47.87;25.97;;;7.90;99.90;;;;;;4409283;28;657971;-67
2023/03/31 01:44:12;;;;;;;43.97;25.80;;;7.90;99.90;;;;;;4427602;28;658270;-67
2023/03/31 01:47:01;;;;;;;47.70;25.00;;;8.00;99.90;;;;;;4432054;28;658084;-67
2023/03/31 01:49:53;;;;;;;43.77;26.80;;;7.90;99.90;;;;;;4439165;28;657858;-67
2023/03/31 01:52:42;;;;;;;45.73;25.37;;;7.90;99.90;;;;;;4423474;28;657616;-67
2023/03/31 01:55:32;;;;;;;41.97;24.30;;;7.80;99.90;;;;;;4454581;28;657350;-67
2023/03/31 01:58:21;;;;;;;37.80;21.40;;;7.80;99.90;;;;;;4466071;28;658267;-67
2023/03/31 02:01:12;;;;;;;42.97;25.00;;;7.90;99.90;;;;;;4434258;28;657351;-67
2023/03/31 02:04:02;;;;;;;43.17;25.13;;;7.90;99.90;;;;;;4442811;28;657677;-67
2023/03/31 02:06:55;;;;;;;45.07;26.17;;;7.90;99.90;;;;;;4425719;28;658115;-67
2023/03/31 02:09:44;;;;;;;36.27;21.03;;;7.90;99.90;;;;;;4415658;28;658735;-67
2023/03/31 02:12:31;;;;;;;46.23;23.20;;;7.90;99.90;;;;;;4446745;28;658211;-67
2023/03/31 02:15:22;;;;;;;38.57;22.10;;;7.90;99.90;;;;;;4458136;28;657351;-67
2023/03/31 02:18:11;;;;;;;38.20;21.20;;;7.90;99.90;;;;;;4433419;28;657377;-67
2023/03/31 02:20:58;;;;;;;35.20;20.57;;;7.90;99.90;;;;;;4441110;28;658353;-67
2023/03/31 02:23:45;;;;;;;35.03;21.23;;;7.90;99.90;;;;;;4446330;28;658122;-67
2023/03/31 02:26:36;;;;;;;41.00;20.97;;;7.90;99.90;;;;;;4459962;28;659478;-67
2023/03/31 02:29:23;;;;;;;33.90;20.40;;;7.90;99.90;;;;;;4440302;28;658042;-68
2023/03/31 02:32:13;;;;;;;34.80;21.07;;;7.90;99.90;;;;;;4424145;28;657708;-68
2023/03/31 02:35:00;;;;;;;32.23;20.33;;;7.90;99.90;;;;;;4439316;28;657278;-68
2023/03/31 02:37:48;;;;;;;39.90;20.03;;;7.90;99.90;;;;;;4449464;28;658138;-67
2023/03/31 02:40:35;;;;;;;36.93;20.03;;;7.90;99.90;;;;;;4433497;28;657952;-67
2023/03/31 02:43:22;;;;;;;35.67;20.40;;;7.90;99.90;;;;;;4442692;28;659268;-67
2023/03/31 02:46:10;;;;;;;34.67;19.37;;;7.90;99.90;;;;;;4437502;28;657571;-67
2023/03/31 02:49:00;;;;;;;30.67;18.03;;;7.90;99.90;;;;;;4445175;28;659272;-67
2023/03/31 02:52:01;;;;;;;35.00;18.93;;;7.90;99.90;;;;;;4423706;28;658193;-67
2023/03/31 02:55:10;;;;;;;31.37;17.33;;;7.90;99.90;;;;;;4438048;28;658457;-67
2023/03/31 02:58:26;;;;;;;31.83;18.60;;;7.90;99.90;;;;;;4415469;28;659388;-67
2023/03/31 03:01:27;;;;;;;35.17;19.30;;;7.80;99.90;;;;;;4439094;28;658214;-67
2023/03/31 03:04:25;;;;;;;32.37;18.13;;;7.80;99.90;;;;;;4438900;28;657553;-67
2023/03/31 03:07:15;;;;;;;30.50;17.17;;;7.80;99.90;;;;;;4403141;28;658799;-67
2023/03/31 03:10:04;;;;;;;33.33;17.33;;;7.90;99.90;;;;;;4439813;28;658374;-67
2023/03/31 03:12:54;;;;;;;28.63;16.53;;;7.80;99.90;;;;;;4440361;28;657707;-67
2023/03/31 03:15:43;;;;;;;30.23;17.30;;;7.80;99.90;;;;;;4432560;28;657728;-67
2023/03/31 03:18:30;;;;;;;30.33;17.77;;;7.70;99.90;;;;;;4442854;28;657531;-67
2023/03/31 03:21:19;;;;;;;28.63;17.57;;;7.70;99.90;;;;;;4455573;28;658808;-67
2023/03/31 03:24:07;;;;;;;26.63;17.07;;;7.80;99.90;;;;;;4429904;28;658148;-67
2023/03/31 03:26:55;;;;;;;27.70;16.00;;;7.80;99.90;;;;;;4458427;28;657538;-67
2023/03/31 03:29:42;;;;;;;29.93;17.07;;;7.70;99.90;;;;;;4423657;28;659421;-67
2023/03/31 03:32:32;;;;;;;27.70;16.07;;;7.70;99.90;;;;;;4457021;28;658127;-67
2023/03/31 03:35:19;;;;;;;31.27;16.42;;;7.70;99.90;;;;;;4459572;28;657964;-67
2023/03/31 03:38:08;;;;;;;27.90;16.00;;;7.80;99.90;;;;;;4439907;28;657539;-67
2023/03/31 03:40:55;;;;;;;25.80;15.70;;;7.80;99.90;;;;;;4441448;28;657808;-67
2023/03/31 03:43:42;;;;;;;31.47;17.60;;;7.70;99.90;;;;;;4450078;28;659198;-67
2023/03/31 03:46:30;;;;;;;25.20;16.83;;;7.80;99.90;;;;;;4460415;28;657689;-68
2023/03/31 03:49:17;;;;;;;29.30;16.83;;;7.80;99.90;;;;;;4463885;28;658535;-67
2023/03/31 03:52:06;;;;;;;20.17;13.30;;;7.70;99.90;;;;;;4451029;28;657641;-68
2023/03/31 03:54:54;;;;;;;23.70;14.70;;;7.70;99.90;;;;;;4454083;28;658431;-67
2023/03/31 03:57:41;;;;;;;23.17;14.50;;;7.70;99.90;;;;;;4441085;28;658412;-67
2023/03/31 04:00:29;;;;;;;27.30;14.97;;;7.60;99.90;;;;;;4463859;28;658207;-67
2023/03/31 04:03:16;;;;;;;21.90;13.77;;;7.70;99.90;;;;;;4438917;28;657883;-67
2023/03/31 04:06:03;;;;;;;22.60;15.07;;;7.60;99.90;;;;;;4467776;28;658611;-67
2023/03/31 04:08:51;;;;;;;20.83;14.17;;;7.70;99.90;;;;;;4445655;28;657945;-67
2023/03/31 04:11:39;;;;;;;22.37;14.90;;;7.60;99.90;;;;;;4444352;28;658411;-67
2023/03/31 04:14:26;;;;;;;26.00;14.57;;;7.60;99.90;;;;;;4422600;28;657309;-67
2023/03/31 04:17:14;;;;;;;21.03;13.67;;;7.60;99.90;;;;;;4463509;28;657353;-67
2023/03/31 04:20:04;;;;;;;20.23;13.07;;;7.60;99.90;;;;;;4429622;28;658462;-67
2023/03/31 04:22:51;;;;;;;20.00;12.37;;;7.60;99.90;;;;;;4427795;28;657776;-67
2023/03/31 04:25:45;;;;;;;19.60;12.00;;;7.60;99.90;;;;;;4448407;28;658180;-67
2023/03/31 04:28:33;;;;;;;20.77;12.23;;;7.60;99.90;;;;;;4441047;28;658010;-67
2023/03/31 04:31:23;;;;;;;23.43;12.63;;;7.60;99.90;;;;;;4447099;28;657475;-68
2023/03/31 04:34:12;;;;;;;18.93;11.90;;;7.60;99.90;;;;;;4433049;28;657911;-67
2023/03/31 04:37:01;;;;;;;19.87;12.67;;;7.60;99.90;;;;;;4462674;28;657924;-67
2023/03/31 04:39:49;;;;;;;24.37;13.17;;;7.60;99.90;;;;;;4438106;28;658499;-67
2023/03/31 04:42:36;;;;;;;21.50;13.43;;;7.60;99.90;;;;;;4447492;28;659048;-67
2023/03/31 04:45:25;;;;;;;23.60;14.07;;;7.60;99.90;;;;;;4457004;28;658079;-67
2023/03/31 04:48:12;;;;;;;24.30;14.37;;;7.60;99.90;;;;;;4442666;28;658269;-67
2023/03/31 04:50:59;;;;;;;23.33;14.50;;;7.60;99.90;;;;;;4448715;28;657454;-67
2023/03/31 04:53:47;;;;;;;24.57;15.30;;;7.60;99.90;;;;;;4432618;28;658398;-67
2023/03/31 04:56:34;;;;;;;21.20;13.83;;;7.60;99.90;;;;;;4457710;28;657789;-67
2023/03/31 04:59:21;;;;;;;23.90;14.57;;;7.60;99.90;;;;;;4415549;28;658082;-67
2023/03/31 05:02:10;;;;;;;21.17;13.53;;;7.70;99.90;;;;;;4460061;28;658307;-67
2023/03/31 05:04:57;;;;;;;22.13;13.43;;;7.70;99.90;;;;;;4438115;28;658008;-67
2023/03/31 05:07:45;;;;;;;22.73;13.90;;;7.70;99.90;;;;;;4464208;28;657943;-67
2023/03/31 05:10:32;;;;;;;21.37;13.97;;;7.70;99.90;;;;;;4429626;28;658819;-67
2023/03/31 05:13:19;;;;;;;23.10;15.13;;;7.70;99.90;;;;;;4455834;28;657435;-67
2023/03/31 05:16:07;;;;;;;26.13;15.33;;;7.70;99.90;;;;;;4436295;28;657924;-67
2023/03/31 05:18:56;;;;;;;23.17;14.33;;;7.80;99.90;;;;;;4461385;28;657224;-67
2023/03/31 05:21:43;;;;;;;25.53;14.83;;;7.80;99.90;;;;;;4441987;28;658984;-67
2023/03/31 05:24:30;;;;;;;22.07;14.80;;;7.90;99.90;;;;;;4427291;28;657700;-67
2023/03/31 05:27:18;;;;;;;24.67;14.57;;;7.90;99.90;;;;;;4457084;28;658986;-67
2023/03/31 05:30:07;;;;;;;24.10;14.63;;;7.90;99.90;;;;;;4446259;27;657898;-67
2023/03/31 05:32:54;;;;;;;25.53;13.70;;;7.90;99.90;;;;;;4450108;28;657765;-67
2023/03/31 05:35:44;;;;;;;23.40;14.90;;;7.90;99.90;;;;;;4442883;28;658217;-67
2023/03/31 05:38:33;;;;;;;24.70;14.10;;;8.10;99.90;;;;;;4438307;27;657337;-67
2023/03/31 05:41:20;;;;;;;17.60;10.83;;;8.20;99.90;;;;;;4417488;28;657764;-67
2023/03/31 05:44:07;;;;;;;20.27;12.37;;;8.10;99.90;;;;;;4455863;28;658204;-67
2023/03/31 05:46:55;;;;;;;21.37;12.97;;;8.20;99.90;;;;;;4453723;28;657499;-68
2023/03/31 05:49:42;;;;;;;20.17;11.50;;;8.30;99.90;;;;;;4458838;28;658623;-67
2023/03/31 05:52:32;;;;;;;16.30;10.43;;;8.40;99.90;;;;;;4439947;28;657266;-68
2023/03/31 05:55:19;;;;;;;20.33;12.07;;;8.40;99.90;;;;;;4457064;28;657878;-67
2023/03/31 05:58:07;;;;;;;18.93;11.90;;;8.40;99.90;;;;;;4432892;28;657565;-67
2023/03/31 06:01:04;;;;;;;16.30;10.40;;;8.50;99.90;;;;;;4447271;28;657702;-67
2023/03/31 06:03:51;;;;;;;16.37;9.93;;;8.50;99.90;;;;;;4400471;28;657890;-67
2023/03/31 06:06:39;;;;;;;17.23;10.10;;;8.50;99.90;;;;;;4446429;28;657355;-67
2023/03/31 06:09:28;;;;;;;14.73;9.80;;;8.60;99.90;;;;;;4423265;28;657793;-68
2023/03/31 06:12:15;;;;;;;14.63;8.67;;;8.60;99.90;;;;;;4422515;28;656560;-68
2023/03/31 06:15:03;;;;;;;13.17;7.97;;;8.70;99.90;;;;;;4443121;28;658938;-69
2023/03/31 06:17:50;;;;;;;12.53;7.03;;;8.70;99.90;;;;;;4428963;28;657282;-69
2023/03/31 06:20:37;;;;;;;10.57;5.93;;;8.80;99.90;;;;;;4446831;28;658201;-68
2023/03/31 06:23:25;;;;;;;8.73;4.80;;;8.90;99.90;;;;;;4439625;28;656772;-68
2023/03/31 06:26:16;;;;;;;13.30;6.10;;;8.90;99.90;;;;;;4462698;28;656858;-67
2023/03/31 06:29:04;;;;;;;9.40;5.20;;;8.80;99.90;;;;;;4425737;28;657037;-68
2023/03/31 06:31:51;;;;;;;8.23;5.80;;;8.80;99.90;;;;;;4420082;28;655673;-68
2023/03/31 06:34:38;;;;;;;8.37;5.60;;;9.00;99.90;;;;;;4437557;28;657119;-69
2023/03/31 06:37:25;;;;;;;12.00;5.30;;;9.10;99.90;;;;;;4427316;28;655896;-71
2023/03/31 06:40:13;;;;;;;12.37;5.23;;;9.10;99.90;;;;;;4449059;28;659169;-69
2023/03/31 06:43:02;;;;;;;14.63;5.63;;;9.30;99.90;;;;;;4425029;28;657213;-69
2023/03/31 06:45:49;;;;;;;10.30;5.37;;;9.50;99.90;;;;;;4445287;28;656827;-69
2023/03/31 06:48:36;;;;;;;11.10;5.07;;;9.50;99.90;;;;;;4423091;28;656616;-69
2023/03/31 06:51:23;;;;;;;14.00;5.50;;;9.50;99.90;;;;;;4438924;28;657591;-70
2023/03/31 06:54:11;;;;;;;9.63;4.83;;;9.50;99.90;;;;;;4422605;28;657292;-70
2023/03/31 06:56:58;;;;;;;9.93;4.90;;;9.60;99.90;;;;;;4447844;28;656414;-69
2023/03/31 06:59:47;;;;;;;6.73;4.17;;;9.70;99.90;;;;;;4448303;28;655515;-68
2023/03/31 07:02:35;;;;;;;9.83;5.13;;;9.70;99.90;;;;;;4453211;28;654997;-69
2023/03/31 07:05:26;;;;;;;9.20;5.27;;;9.60;99.90;;;;;;4418750;28;657179;-69
2023/03/31 07:08:13;;;;;;;10.60;5.13;;;9.60;99.90;;;;;;4417540;28;655965;-69
2023/03/31 07:11:00;;;;;;;14.57;5.27;;;9.50;99.90;;;;;;4426588;28;657492;-72
2023/03/31 07:13:48;;;;;;;10.37;4.70;;;9.50;99.90;;;;;;4456827;28;657218;-69
2023/03/31 07:16:37;;;;;;;9.07;4.20;;;9.80;99.90;;;;;;4431552;28;657018;-69
2023/03/31 07:19:24;;;;;;;9.03;4.13;;;10.00;99.90;;;;;;4449774;28;656226;-70
2023/03/31 07:22:11;;;;;;;7.33;3.43;;;10.20;99.90;;;;;;4420796;28;656410;-70
2023/03/31 07:24:59;;;;;;;7.57;3.47;;;10.30;99.90;;;;;;4445850;28;656732;-71
2023/03/31 07:27:46;;;;;;;5.97;3.10;;;10.30;99.90;;;;;;4420614;28;656400;-73
2023/03/31 07:30:33;;;;;;;7.47;3.87;;;10.30;99.90;;;;;;4446505;28;657496;-73
2023/03/31 07:33:22;;;;;;;12.57;3.90;;;10.40;99.90;;;;;;4424880;28;656915;-71
2023/03/31 07:36:09;;;;;;;8.47;3.70;;;10.50;99.90;;;;;;4443271;28;658015;-71
2023/03/31 07:38:56;;;;;;;9.03;3.87;;;10.60;99.90;;;;;;4425472;28;657564;-74
2023/03/31 07:41:44;;;;;;;6.10;3.17;;;10.60;99.90;;;;;;4453540;28;657264;-71
2023/03/31 07:44:33;;;;;;;7.97;3.50;;;10.90;99.90;;;;;;4429962;28;656894;-73
2023/03/31 07:47:20;;;;;;;6.27;3.30;;;11.20;99.90;;;;;;4436573;28;657177;-75
2023/03/31 07:50:09;;;;;;;9.20;3.57;;;11.40;99.90;;;;;;4462192;28;657145;-73
2023/03/31 07:52:57;;;;;;;9.30;3.30;;;11.60;99.90;;;;;;4436197;28;657221;-74
2023/03/31 07:55:44;;;;;;;7.67;3.40;;;11.60;99.90;;;;;;4450891;28;656743;-74
2023/03/31 07:58:31;;;;;;;5.40;2.60;;;11.60;99.90;;;;;;4427347;28;656522;-75
2023/03/31 08:01:19;;;;;;;8.83;2.70;;;11.60;99.90;;;;;;4435121;28;658302;-72
2023/03/31 08:04:07;;;;;;;5.17;2.53;;;11.20;99.90;;;;;;4434656;28;657209;-71
2023/03/31 08:06:56;;;;;;;7.93;3.37;;;11.50;99.90;;;;;;4446201;28;656995;-70
2023/03/31 08:09:44;;;;;;;5.50;2.50;;;11.90;99.90;;;;;;4420952;28;657823;-72
2023/03/31 08:12:31;;;;;;;4.97;2.63;;;12.30;99.90;;;;;;4429849;28;657157;-69
2023/03/31 08:15:19;;;;;;;6.10;2.50;;;12.40;99.90;;;;;;4447002;28;656282;-70
2023/03/31 08:18:06;;;;;;;7.47;2.45;;;12.20;99.90;;;;;;4434993;28;657101;-70
2023/03/31 08:20:53;;;;;;;5.47;2.63;;;12.00;99.90;;;;;;4459525;28;658553;-71
2023/03/31 08:23:42;;;;;;;9.70;3.37;;;12.00;99.90;;;;;;4437145;28;656638;-69
2023/03/31 08:26:30;;;;;;;6.40;2.83;;;12.10;99.90;;;;;;4447334;28;658208;-69
2023/03/31 08:29:17;;;;;;;6.67;2.67;;;12.40;99.90;;;;;;4435228;27;657877;-69
2023/03/31 08:32:05;;;;;;;5.40;2.47;;;12.60;99.90;;;;;;4443027;27;656732;-69
2023/03/31 08:34:53;;;;;;;4.37;2.20;;;12.70;99.90;;;;;;4446730;27;658139;-69
2023/03/31 08:37:40;;;;;;;7.17;2.70;;;12.40;99.90;;;;;;4448644;28;656855;-69
2023/03/31 08:40:29;;;;;;;6.23;2.53;;;12.20;99.90;;;;;;4455948;27;657506;-69
2023/03/31 08:43:18;;;;;;;6.70;2.77;;;12.20;99.90;;;;;;4425474;28;657398;-68
2023/03/31 08:46:06;;;;;;;9.97;2.70;;;12.30;99.90;;;;;;4438742;28;657023;-69
2023/03/31 08:48:54;;;;;;;3.80;2.30;;;12.40;99.90;;;;;;4463938;28;657395;-68
2023/03/31 08:51:43;;;;;;;5.20;2.63;;;12.50;99.90;;;;;;4438283;28;656333;-70
2023/03/31 08:54:32;;;;;;;5.20;2.47;;;12.30;99.90;;;;;;4422901;28;656287;-69
2023/03/31 08:57:24;;;;;;;3.43;1.90;;;12.90;99.90;;;;;;4449466;28;657174;-69
2023/03/31 09:00:15;;;;;;;6.17;2.30;;;13.10;99.90;;;;;;4422517;28;656453;-68
2023/03/31 09:03:04;;;;;;;5.73;2.00;;;12.60;99.90;;;;;;4423710;28;657718;-68
2023/03/31 09:05:54;;;;;;;8.47;2.33;;;12.90;99.90;;;;;;4426244;28;657703;-68
2023/03/31 09:08:41;;;;;;;7.40;2.30;;;12.90;99.90;;;;;;4441187;28;656125;-68
2023/03/31 09:11:32;;;;;;;10.77;2.33;;;12.90;99.90;;;;;;4443272;28;657433;-69
2023/03/31 09:14:27;;;;;;;6.90;2.53;;;13.10;99.90;;;;;;4437916;28;657929;-67
2023/03/31 09:17:18;;;;;;;6.32;2.67;;;12.90;99.90;;;;;;4421567;28;656828;-67
2023/03/31 09:20:08;;;;;;;4.37;2.40;;;13.00;99.90;;;;;;4398338;28;657566;-67
2023/03/31 09:22:57;;;;;;;7.60;2.27;;;12.70;99.90;;;;;;4429029;28;658843;-69
2023/03/31 09:25:45;;;;;;;3.90;1.63;;;13.00;99.90;;;;;;4455516;28;656817;-68
2023/03/31 09:28:35;;;;;;;4.33;2.00;;;13.90;99.90;;;;;;4419572;28;657008;-69
2023/03/31 09:31:23;;;;;;;3.97;1.40;;;13.80;99.90;;;;;;4429592;27;658581;-69
2023/03/31 09:34:14;;;;;;;5.43;2.40;;;13.80;99.90;;;;;;4437195;28;656212;-68
2023/03/31 09:37:01;;;;;;;5.20;1.67;;;13.60;99.90;;;;;;4421732;28;656600;-68
2023/03/31 09:39:49;;;;;;;5.10;1.70;;;13.80;99.90;;;;;;4451139;27;657374;-68
2023/03/31 09:42:36;;;;;;;3.00;1.70;;;13.90;99.90;;;;;;4429004;28;656736;-67
2023/03/31 09:45:23;;;;;;;3.13;1.42;;;13.80;99.90;;;;;;4458509;28;657948;-68
2023/03/31 09:48:13;;;;;;;5.40;1.80;;;14.00;99.90;;;;;;4440938;28;656199;-68
2023/03/31 09:51:02;;;;;;;4.00;1.50;;;13.90;99.90;;;;;;4430838;28;656228;-68
2023/03/31 09:53:51;;;;;;;3.97;1.27;;;14.00;99.90;;;;;;4451936;28;657176;-68
2023/03/31 09:56:47;;;;;;;5.20;1.40;;;14.50;99.90;;;;;;4439910;28;658355;-68
2023/03/31 09:59:35;;;;;;;5.17;1.60;;;14.50;99.90;;;;;;4425202;28;658022;-70
2023/03/31 10:02:44;;;;;;;8.07;2.20;;;14.60;99.90;;;;;;4417777;28;658037;-70
2023/03/31 10:05:35;;;;;;;5.23;1.80;;;14.80;99.90;;;;;;4405103;28;656972;-67
2023/03/31 10:08:27;;;;;;;7.80;2.13;;;14.60;99.90;;;;;;4421034;28;658147;-68
2023/03/31 10:11:15;;;;;;;5.53;2.05;;;14.50;99.90;;;;;;4427371;28;656697;-69
2023/03/31 10:14:03;;;;;;;8.90;1.80;;;14.10;99.90;;;;;;4448721;28;658034;-68
2023/03/31 10:16:53;;;;;;;7.43;2.00;;;14.50;99.90;;;;;;4424147;28;656310;-68
2023/03/31 10:19:42;;;;;;;8.67;2.07;;;14.70;99.90;;;;;;4451806;28;656809;-68
2023/03/31 10:22:31;;;;;;;10.47;1.90;;;14.90;99.90;;;;;;4449041;28;656457;-68
2023/03/31 10:25:20;;;;;;;6.63;2.40;;;15.40;99.90;;;;;;4429357;28;657894;-67
2023/03/31 10:28:11;;;;;;;3.87;1.80;;;15.70;99.90;;;;;;4435319;28;658130;-67
2023/03/31 10:31:00;;;;;;;4.57;1.70;;;16.00;99.90;;;;;;4419668;28;657942;-68
2023/03/31 10:33:48;;;;;;;5.90;1.90;;;15.70;99.90;;;;;;4433548;28;658200;-69
2023/03/31 10:36:36;;;;;;;6.23;2.00;;;15.00;99.90;;;;;;4426059;28;656489;-69
2023/03/31 10:39:28;;;;;;;5.77;2.00;;;14.60;99.90;;;;;;4449017;28;656892;-68
2023/03/31 10:42:21;;;;;;;7.37;2.30;;;14.40;99.90;;;;;;4418821;28;657757;-68
2023/03/31 10:45:13;;;;;;;7.63;2.30;;;14.00;99.90;;;;;;4415469;28;657926;-69
2023/03/31 10:48:00;;;;;;;4.47;2.17;;;13.70;99.90;;;;;;4410211;27;656966;-69
2023/03/31 10:50:48;;;;;;;6.97;1.83;;;13.70;99.90;;;;;;4458440;28;658217;-67
2023/03/31 10:53:40;;;;;;;6.73;1.70;;;13.70;99.90;;;;;;4426712;28;657257;-67
2023/03/31 10:56:36;;;;;;;4.27;1.70;;;13.80;99.90;;;;;;4437684;28;657711;-68
2023/03/31 10:59:31;;;;;;;7.60;1.40;;;13.80;99.90;;;;;;4427301;28;657105;-70
2023/03/31 11:02:52;;;;;;;3.07;1.40;;;13.60;99.90;;;;;;4422425;28;657504;-68
2023/03/31 11:05:40;;;;;;;6.23;1.50;;;13.50;99.90;;;;;;4428394;28;656028;-70
2023/03/31 11:08:35;;;;;;;6.40;1.87;;;13.40;99.90;;;;;;4427380;28;657291;-67
2023/03/31 11:11:34;;;;;;;4.93;2.00;;;13.50;99.90;;;;;;4397908;28;656639;-67
2023/03/31 11:14:24;;;;;;;5.53;1.90;;;13.70;99.90;;;;;;4423174;28;656647;-68
2023/03/31 11:17:21;;;;;;;4.73;1.80;;;13.70;99.90;;;;;;4420952;28;657212;-69
2023/03/31 11:20:15;;;;;;;7.70;2.27;;;13.60;99.90;;;;;;4417666;28;657456;-69
2023/03/31 11:23:06;;;;;;;7.20;1.70;;;13.50;99.90;;;;;;4396116;28;656666;-67
2023/03/31 11:25:56;;;;;;;8.38;2.15;;;13.70;99.90;;;;;;4421178;28;657690;-69
2023/03/31 11:29:02;;;;;;;8.20;2.10;;;13.80;99.90;;;;;;4419402;28;656739;-69
2023/03/31 11:31:52;;;;;;;9.17;2.40;;;14.00;99.90;;;;;;4420660;28;657668;-69
2023/03/31 11:34:48;;;;;;;5.60;2.30;;;14.00;99.90;;;;;;4416906;28;657337;-69
2023/03/31 11:38:12;;;;;;;9.30;2.33;;;13.90;99.90;;;;;;4398398;28;657685;-69
2023/03/31 11:41:00;;;;;;;10.10;2.70;;;14.10;99.90;;;;;;4420662;28;657029;-69
2023/03/31 11:43:48;;;;;;;5.13;2.30;;;14.20;99.90;;;;;;4419742;28;658425;-69
2023/03/31 11:46:39;;;;;;;7.33;2.70;;;14.00;99.90;;;;;;4424020;28;656525;-69
2023/03/31 11:49:27;;;;;;;6.23;3.00;;;13.90;99.90;;;;;;4433382;28;656974;-69
2023/03/31 11:52:15;;;;;;;7.13;2.65;;;13.80;99.90;;;;;;4455824;28;656368;-69
2023/03/31 11:55:04;;;;;;;8.97;2.97;;;13.50;99.90;;;;;;4428920;28;656996;-69
2023/03/31 11:57:54;;;;;;;6.23;2.50;;;13.60;99.90;;;;;;4423216;28;656565;-70
2023/03/31 12:00:43;;;;;;;7.90;3.00;;;13.50;99.90;;;;;;4436117;28;656609;-69
2023/03/31 12:03:35;;;;;;;5.87;2.40;;;13.50;99.90;;;;;;4428644;28;656783;-68
2023/03/31 12:06:24;;;;;;;7.25;2.83;;;13.50;99.90;;;;;;4432672;28;657375;-69
2023/03/31 12:09:15;;;;;;;5.00;2.50;;;13.50;99.90;;;;;;4440933;28;656961;-69
2023/03/31 12:12:04;;;;;;;5.17;2.67;;;13.50;99.90;;;;;;4428612;27;657642;-70
2023/03/31 12:14:53;;;;;;;9.97;2.63;;;13.50;99.90;;;;;;4420343;28;658348;-69
2023/03/31 12:17:41;;;;;;;5.27;2.80;;;13.60;99.90;;;;;;4433089;28;656881;-70
2023/03/31 12:20:36;;;;;;;9.13;2.90;;;13.70;99.90;;;;;;4457767;28;656807;-69
2023/03/31 12:23:24;;;;;;;7.33;2.83;;;14.00;99.90;;;;;;4423569;28;657648;-69
2023/03/31 12:26:20;;;;;;;6.97;2.57;;;14.40;99.90;;;;;;4437008;28;656650;-70
2023/03/31 12:29:12;;;;;;;7.37;2.43;;;14.60;99.90;;;;;;4411897;28;657981;-70
2023/03/31 12:32:01;;;;;;;6.77;2.50;;;14.70;99.90;;;;;;4437159;28;656566;-69
2023/03/31 12:34:51;;;;;;;4.57;2.23;;;15.00;99.90;;;;;;4432169;28;657869;-70
2023/03/31 12:38:12;;;;;;;7.20;2.50;;;14.90;99.90;;;;;;4429338;28;656354;-69
2023/03/31 12:41:03;;;;;;;6.83;2.40;;;14.90;99.90;;;;;;4432931;28;657552;-69
2023/03/31 12:44:16;;;;;;;7.57;2.10;;;15.00;99.90;;;;;;4412535;28;656787;-70
2023/03/31 12:47:26;;;;;;;6.70;2.20;;;14.90;99.90;;;;;;4441592;27;656395;-70
2023/03/31 12:50:25;;;;;;;4.80;2.00;;;14.70;99.90;;;;;;4427938;28;657907;-68
2023/03/31 12:53:19;;;;;;;7.70;2.40;;;14.80;99.90;;;;;;4436641;27;656831;-68
2023/03/31 12:56:07;;;;;;;9.33;2.03;;;14.80;99.90;;;;;;4411118;28;657616;-68
2023/03/31 12:58:55;;;;;;;8.67;2.00;;;14.70;99.90;;;;;;4441631;28;656783;-68
2023/03/31 13:02:05;;;;;;;4.73;2.30;;;14.60;99.90;;;;;;4424211;28;656989;-68
2023/03/31 13:04:52;;;;;;;4.43;1.70;;;14.50;99.90;;;;;;4440454;28;656775;-70
2023/03/31 13:07:41;;;;;;;2.93;1.60;;;14.50;99.90;;;;;;4438198;28;656518;-69
2023/03/31 13:10:31;;;;;;;5.87;1.80;;;14.60;99.90;;;;;;4450563;28;657359;-69
2023/03/31 13:13:18;;;;;;;7.10;2.00;;;14.40;99.90;;;;;;4425241;28;657458;-69
2023/03/31 13:16:05;;;;;;;7.87;1.83;;;14.20;99.90;;;;;;4423304;28;657024;-70
2023/03/31 13:18:53;;;;;;;8.07;1.90;;;14.30;99.90;;;;;;4464916;28;657122;-69
2023/03/31 13:21:53;;;;;;;5.80;2.00;;;14.00;99.90;;;;;;4427382;28;656493;-69
2023/03/31 13:24:40;;;;;;;4.83;1.87;;;14.10;99.90;;;;;;4414950;28;656861;-69
2023/03/31 13:27:33;;;;;;;4.40;1.80;;;14.00;99.90;;;;;;4451883;28;656565;-70
2023/03/31 13:30:49;;;;;;;6.10;1.90;;;13.90;99.90;;;;;;4422465;27;657226;-70
2023/03/31 13:33:40;;;;;;;9.90;2.80;;;13.90;99.90;;;;;;4402039;28;657593;-70
2023/03/31 13:37:02;;;;;;;11.27;2.67;;;14.00;99.90;;;;;;4421314;28;658882;-70
2023/03/31 13:40:07;;;;;;;7.33;2.10;;;14.00;99.90;;;;;;4453018;28;657519;-70
2023/03/31 13:43:14;;;;;;;7.40;2.30;;;14.10;99.90;;;;;;4443697;28;656880;-69
2023/03/31 13:46:23;;;;;;;4.50;1.20;;;14.20;99.90;;;;;;4403682;28;658152;-68
2023/03/31 13:49:16;;;;;;;4.47;1.37;;;14.20;99.90;;;;;;4410664;28;656372;-69
2023/03/31 13:52:04;;;;;;;8.90;1.50;;;14.20;98.60;;;;;;4424199;28;657098;-70
2023/03/31 13:55:26;;;;;;;4.67;1.40;;;14.40;97.30;;;;;;4421253;28;656935;-68
2023/03/31 13:58:29;;;;;;;5.43;1.70;;;14.50;95.70;;;;;;4417757;28;657228;-69
2023/03/31 14:01:44;;;;;;;6.87;1.77;;;14.60;95.60;;;;;;4428620;28;657119;-70
2023/03/31 14:05:10;;;;;;;4.77;1.50;;;14.60;95.00;;;;;;4439265;28;657152;-69
2023/03/31 14:07:58;;;;;;;6.83;1.40;;;14.50;95.70;;;;;;4441600;28;656140;-69
2023/03/31 14:10:45;;;;;;;6.20;1.73;;;14.40;96.00;;;;;;4423530;28;656467;-69
2023/03/31 14:13:34;;;;;;;5.13;1.50;;;14.20;96.30;;;;;;4458219;28;657026;-69
2023/03/31 14:16:22;;;;;;;6.20;1.60;;;14.00;97.10;;;;;;4419952;28;656428;-68
2023/03/31 14:19:37;;;;;;;6.13;1.07;;;14.00;97.10;;;;;;4446490;28;657042;-69
2023/03/31 14:22:29;;;;;;;8.93;1.83;;;13.70;96.10;;;;;;4415994;28;656223;-69
2023/03/31 14:25:19;;;;;;;5.37;1.27;;;13.70;98.20;;;;;;4395447;28;657442;-67
2023/03/31 14:28:15;;;;;;;3.67;1.00;;;13.60;97.70;;;;;;4422094;28;657213;-69
2023/03/31 14:31:11;;;;;;;3.83;0.83;;;13.40;98.80;;;;;;4407716;27;656690;-68
2023/03/31 14:34:12;;;;;;;3.50;0.97;;;13.20;99.00;;;;;;4429274;28;657330;-70
2023/03/31 14:37:01;;;;;;;6.80;1.50;;;13.00;98.90;;;;;;4425065;28;657225;-68